sensor_id;sensor_type;location;lat;lon;timestamp;pressure;altitude;pressure_sealevel;temperature;humidity
77871;BME280;67067;46.850;7.578;2023-03-15T00:00:39;95037.88;;;1.65;54.85
77871;BME280;67067;46.850;7.578;2023-03-15T00:01:42;95033.88;;;1.70;54.77
77871;BME280;67067;46.850;7.578;2023-03-15T00:02:47;95040.09;;;1.69;55.31
77871;BME280;67067;46.850;7.578;2023-03-15T00:03:48;95040.69;;;1.64;55.27
77871;BME280;67067;46.850;7.578;2023-03-15T00:04:50;95035.09;;;1.67;54.87
77871;BME280;67067;46.850;7.578;2023-03-15T00:05:55;95045.91;;;1.64;54.84
77871;BME280;67067;46.850;7.578;2023-03-15T00:06:57;95043.09;;;1.59;54.96
77871;BME280;67067;46.850;7.578;2023-03-15T00:07:59;95043.91;;;1.59;54.90
77871;BME280;67067;46.850;7.578;2023-03-15T00:09:04;95041.91;;;1.75;54.53
77871;BME280;67067;46.850;7.578;2023-03-15T00:10:06;95044.31;;;1.63;54.87
77871;BME280;67067;46.850;7.578;2023-03-15T00:11:07;95043.31;;;1.77;53.98
77871;BME280;67067;46.850;7.578;2023-03-15T00:12:11;95053.94;;;1.76;54.69
77871;BME280;67067;46.850;7.578;2023-03-15T00:13:13;95051.94;;;1.71;54.86
77871;BME280;67067;46.850;7.578;2023-03-15T00:14:16;95047.94;;;1.75;54.68
77871;BME280;67067;46.850;7.578;2023-03-15T00:15:20;95046.34;;;1.81;54.45
77871;BME280;67067;46.850;7.578;2023-03-15T00:16:22;95049.94;;;1.87;54.67
77871;BME280;67067;46.850;7.578;2023-03-15T00:17:27;95050.16;;;1.92;54.20
77871;BME280;67067;46.850;7.578;2023-03-15T00:18:29;95051.16;;;1.84;54.85
77871;BME280;67067;46.850;7.578;2023-03-15T00:19:31;95052.38;;;1.88;54.52
77871;BME280;67067;46.850;7.578;2023-03-15T00:20:36;95059.41;;;1.94;54.60
77871;BME280;67067;46.850;7.578;2023-03-15T00:21:38;95058.41;;;2.02;54.46
77871;BME280;67067;46.850;7.578;2023-03-15T00:22:44;95054.59;;;2.12;53.86
77871;BME280;67067;46.850;7.578;2023-03-15T00:23:45;95064.41;;;2.09;53.68
77871;BME280;67067;46.850;7.578;2023-03-15T00:24:51;95060.44;;;2.14;53.38
77871;BME280;67067;46.850;7.578;2023-03-15T00:25:53;95070.47;;;2.17;53.28
77871;BME280;67067;46.850;7.578;2023-03-15T00:26:55;95069.06;;;2.21;53.12
77871;BME280;67067;46.850;7.578;2023-03-15T00:27:57;95073.66;;;2.05;53.48
77871;BME280;67067;46.850;7.578;2023-03-15T00:28:59;95073.28;;;2.15;53.28
77871;BME280;67067;46.850;7.578;2023-03-15T00:30:00;95080.09;;;2.09;53.60
77871;BME280;67067;46.850;7.578;2023-03-15T00:31:11;95078.31;;;2.17;53.42
77871;BME280;67067;46.850;7.578;2023-03-15T00:32:14;95078.31;;;2.17;52.96
77871;BME280;67067;46.850;7.578;2023-03-15T00:33:16;95076.50;;;2.24;52.56
77871;BME280;67067;46.850;7.578;2023-03-15T00:34:17;95070.06;;;2.13;52.96
77871;BME280;67067;46.850;7.578;2023-03-15T00:35:26;95073.28;;;2.22;52.97
77871;BME280;67067;46.850;7.578;2023-03-15T00:36:28;95070.25;;;2.25;52.65
77871;BME280;67067;46.850;7.578;2023-03-15T00:37:30;95076.09;;;2.27;52.72
77871;BME280;67067;46.850;7.578;2023-03-15T00:38:36;95078.69;;;2.34;52.70
77871;BME280;67067;46.850;7.578;2023-03-15T00:39:38;95073.88;;;2.37;51.98
77871;BME280;67067;46.850;7.578;2023-03-15T00:40:42;95078.06;;;2.38;51.92
77871;BME280;67067;46.850;7.578;2023-03-15T00:41:43;95077.88;;;2.33;51.92
77871;BME280;67067;46.850;7.578;2023-03-15T00:42:46;95084.91;;;2.46;51.86
77871;BME280;67067;46.850;7.578;2023-03-15T00:43:51;95092.13;;;2.51;51.54
77871;BME280;67067;46.850;7.578;2023-03-15T00:44:53;95088.91;;;2.56;51.26
77871;BME280;67067;46.850;7.578;2023-03-15T00:45:57;95080.44;;;2.60;50.73
77871;BME280;67067;46.850;7.578;2023-03-15T00:46:59;95081.69;;;2.58;50.61
77871;BME280;67067;46.850;7.578;2023-03-15T00:48:01;95087.28;;;2.61;50.38
77871;BME280;67067;46.850;7.578;2023-03-15T00:49:05;95078.63;;;2.67;50.15
77871;BME280;67067;46.850;7.578;2023-03-15T00:50:07;95083.47;;;2.64;50.42
77871;BME280;67067;46.850;7.578;2023-03-15T00:51:14;95081.66;;;2.64;50.27
77871;BME280;67067;46.850;7.578;2023-03-15T00:52:19;95082.25;;;2.66;50.50
77871;BME280;67067;46.850;7.578;2023-03-15T00:53:22;95078.44;;;2.69;50.35
77871;BME280;67067;46.850;7.578;2023-03-15T00:54:24;95077.66;;;2.62;50.49
77871;BME280;67067;46.850;7.578;2023-03-15T00:55:25;95082.25;;;2.73;50.55
77871;BME280;67067;46.850;7.578;2023-03-15T00:56:27;95089.25;;;2.79;50.50
77871;BME280;67067;46.850;7.578;2023-03-15T00:57:35;95104.94;;;2.79;50.31
77871;BME280;67067;46.850;7.578;2023-03-15T00:58:37;95118.00;;;2.73;50.32
77871;BME280;67067;46.850;7.578;2023-03-15T00:59:39;95146.00;;;2.59;49.88
77871;BME280;67067;46.850;7.578;2023-03-15T01:00:41;95139.56;;;2.55;50.28
77871;BME280;67067;46.850;7.578;2023-03-15T01:01:43;95155.41;;;1.99;51.03
77871;BME280;67067;46.850;7.578;2023-03-15T01:02:45;95178.00;;;1.65;52.05
77871;BME280;67067;46.850;7.578;2023-03-15T01:03:48;95168.53;;;1.57;52.04
77871;BME280;67067;46.850;7.578;2023-03-15T01:04:50;95164.31;;;1.56;52.13
77871;BME280;67067;46.850;7.578;2023-03-15T01:05:54;95161.09;;;1.47;52.28
77871;BME280;67067;46.850;7.578;2023-03-15T01:06:56;95170.59;;;1.20;52.66
77871;BME280;67067;46.850;7.578;2023-03-15T01:08:00;95174.69;;;1.01;53.33
77871;BME280;67067;46.850;7.578;2023-03-15T01:09:04;95171.19;;;0.80;53.80
77871;BME280;67067;46.850;7.578;2023-03-15T01:10:06;95185.09;;;0.66;54.07
77871;BME280;67067;46.850;7.578;2023-03-15T01:11:13;95189.25;;;0.31;54.96
77871;BME280;67067;46.850;7.578;2023-03-15T01:12:15;95180.81;;;0.29;55.09
77871;BME280;67067;46.850;7.578;2023-03-15T01:13:17;95182.13;;;0.18;55.13
77871;BME280;67067;46.850;7.578;2023-03-15T01:14:22;95182.78;;;-0.16;56.29
77871;BME280;67067;46.850;7.578;2023-03-15T01:15:25;95181.00;;;-0.16;56.30
77871;BME280;67067;46.850;7.578;2023-03-15T01:16:29;95182.16;;;-0.18;56.33
77871;BME280;67067;46.850;7.578;2023-03-15T01:17:31;95172.91;;;-0.21;56.54
77871;BME280;67067;46.850;7.578;2023-03-15T01:18:36;95171.50;;;-0.24;56.72
77871;BME280;67067;46.850;7.578;2023-03-15T01:19:40;95160.47;;;-0.26;56.61
77871;BME280;67067;46.850;7.578;2023-03-15T01:20:42;95159.97;;;-0.36;56.88
77871;BME280;67067;46.850;7.578;2023-03-15T01:21:45;95169.03;;;-0.32;56.78
77871;BME280;67067;46.850;7.578;2023-03-15T01:22:50;95168.66;;;-0.29;56.59
77871;BME280;67067;46.850;7.578;2023-03-15T01:23:52;95172.06;;;-0.28;56.75
77871;BME280;67067;46.850;7.578;2023-03-15T01:24:57;95180.31;;;-0.25;56.79
77871;BME280;67067;46.850;7.578;2023-03-15T01:26:04;95178.69;;;-0.26;56.67
77871;BME280;67067;46.850;7.578;2023-03-15T01:27:08;95177.50;;;-0.23;56.71
77871;BME280;67067;46.850;7.578;2023-03-15T01:28:12;95176.72;;;-0.24;56.82
77871;BME280;67067;46.850;7.578;2023-03-15T01:29:14;95182.91;;;-0.25;56.81
77871;BME280;67067;46.850;7.578;2023-03-15T01:30:18;95181.19;;;-0.17;56.74
77871;BME280;67067;46.850;7.578;2023-03-15T01:31:21;95185.06;;;-0.28;57.08
77871;BME280;67067;46.850;7.578;2023-03-15T01:32:23;95183.97;;;-0.19;56.77
77871;BME280;67067;46.850;7.578;2023-03-15T01:33:25;95180.00;;;-0.15;56.80
77871;BME280;67067;46.850;7.578;2023-03-15T01:34:26;95175.47;;;-0.28;57.14
77871;BME280;67067;46.850;7.578;2023-03-15T01:35:30;95172.50;;;-0.25;56.93
77871;BME280;67067;46.850;7.578;2023-03-15T01:36:35;95162.94;;;-0.39;57.53
77871;BME280;67067;46.850;7.578;2023-03-15T01:37:40;95159.88;;;-0.28;57.15
77871;BME280;67067;46.850;7.578;2023-03-15T01:38:44;95161.81;;;-0.15;56.95
77871;BME280;67067;46.850;7.578;2023-03-15T01:39:47;95162.22;;;-0.11;56.46
77871;BME280;67067;46.850;7.578;2023-03-15T01:40:49;95170.09;;;-0.04;56.26
77871;BME280;67067;46.850;7.578;2023-03-15T01:41:51;95169.66;;;-0.08;56.58
77871;BME280;67067;46.850;7.578;2023-03-15T01:44:13;95189.00;;;0.04;56.55
77871;BME280;67067;46.850;7.578;2023-03-15T01:46:57;95183.41;;;0.08;56.54
77871;BME280;67067;46.850;7.578;2023-03-15T01:47:59;95186.13;;;-0.01;56.49
77871;BME280;67067;46.850;7.578;2023-03-15T01:49:23;95192.59;;;0.03;56.45
77871;BME280;67067;46.850;7.578;2023-03-15T01:50:29;95195.81;;;0.05;56.50
77871;BME280;67067;46.850;7.578;2023-03-15T01:52:40;95192.47;;;0.12;56.53
77871;BME280;67067;46.850;7.578;2023-03-15T01:56:09;95202.00;;;-0.17;57.24
77871;BME280;67067;46.850;7.578;2023-03-15T01:57:17;95199.22;;;-0.16;57.32
77871;BME280;67067;46.850;7.578;2023-03-15T01:58:32;95199.53;;;-0.04;56.65
77871;BME280;67067;46.850;7.578;2023-03-15T01:59:57;95202.00;;;-0.17;57.04
77871;BME280;67067;46.850;7.578;2023-03-15T02:01:02;95198.06;;;-0.28;57.36
77871;BME280;67067;46.850;7.578;2023-03-15T02:02:08;95203.09;;;-0.27;57.11
77871;BME280;67067;46.850;7.578;2023-03-15T02:03:17;95199.94;;;-0.22;56.75
77871;BME280;67067;46.850;7.578;2023-03-15T02:04:35;95200.63;;;-0.13;56.69
77871;BME280;67067;46.850;7.578;2023-03-15T02:05:43;95200.38;;;-0.18;56.85
77871;BME280;67067;46.850;7.578;2023-03-15T02:06:58;95206.31;;;-0.25;57.33
77871;BME280;67067;46.850;7.578;2023-03-15T02:08:06;95197.59;;;-0.17;57.07
77871;BME280;67067;46.850;7.578;2023-03-15T02:09:14;95194.72;;;-0.22;57.19
77871;BME280;67067;46.850;7.578;2023-03-15T02:11:30;95197.59;;;-0.17;57.03
77871;BME280;67067;46.850;7.578;2023-03-15T02:12:37;95186.03;;;-0.29;57.44
77871;BME280;67067;46.850;7.578;2023-03-15T02:13:41;95191.03;;;-0.49;57.75
77871;BME280;67067;46.850;7.578;2023-03-15T02:14:44;95182.94;;;-0.40;57.60
77871;BME280;67067;46.850;7.578;2023-03-15T02:15:51;95193.53;;;-0.41;57.50
77871;BME280;67067;46.850;7.578;2023-03-15T02:16:59;95194.16;;;-0.39;57.48
77871;BME280;67067;46.850;7.578;2023-03-15T02:18:03;95195.81;;;-0.31;57.34
77871;BME280;67067;46.850;7.578;2023-03-15T02:19:05;95195.31;;;-0.42;57.61
77871;BME280;67067;46.850;7.578;2023-03-15T02:20:24;95200.03;;;-0.30;57.15
77871;BME280;67067;46.850;7.578;2023-03-15T02:22:49;95198.53;;;-0.25;57.09
77871;BME280;67067;46.850;7.578;2023-03-15T02:27:42;95192.19;;;-0.37;56.80
77871;BME280;67067;46.850;7.578;2023-03-15T02:28:45;95197.91;;;-0.27;56.57
77871;BME280;67067;46.850;7.578;2023-03-15T02:29:47;95197.91;;;-0.27;56.52
77871;BME280;67067;46.850;7.578;2023-03-15T02:30:49;95194.94;;;-0.39;56.76
77871;BME280;67067;46.850;7.578;2023-03-15T02:31:53;95199.25;;;-0.31;56.27
77871;BME280;67067;46.850;7.578;2023-03-15T02:33:00;95194.31;;;-0.26;56.17
77871;BME280;67067;46.850;7.578;2023-03-15T02:34:05;95199.75;;;-0.20;56.10
77871;BME280;67067;46.850;7.578;2023-03-15T02:35:08;95201.81;;;-0.16;55.96
77871;BME280;67067;46.850;7.578;2023-03-15T02:36:17;95202.34;;;-0.20;55.69
77871;BME280;67067;46.850;7.578;2023-03-15T02:37:20;95201.38;;;-0.19;55.80
77871;BME280;67067;46.850;7.578;2023-03-15T02:38:21;95195.47;;;-0.28;56.10
77871;BME280;67067;46.850;7.578;2023-03-15T02:39:25;95203.88;;;-0.26;56.07
77871;BME280;67067;46.850;7.578;2023-03-15T02:40:29;95199.31;;;-0.24;55.52
77871;BME280;67067;46.850;7.578;2023-03-15T02:42:36;95199.22;;;-0.16;55.29
77871;BME280;67067;46.850;7.578;2023-03-15T02:43:38;95202.25;;;-0.12;55.26
77871;BME280;67067;46.850;7.578;2023-03-15T02:44:44;95198.22;;;-0.15;55.51
77871;BME280;67067;46.850;7.578;2023-03-15T02:45:48;95203.22;;;-0.13;55.41
77871;BME280;67067;46.850;7.578;2023-03-15T02:46:52;95213.47;;;-0.12;55.39
77871;BME280;67067;46.850;7.578;2023-03-15T02:47:55;95205.22;;;-0.15;55.55
77871;BME280;67067;46.850;7.578;2023-03-15T02:48:58;95207.56;;;-0.20;55.70
77871;BME280;67067;46.850;7.578;2023-03-15T02:50:02;95211.94;;;-0.21;55.67
77871;BME280;67067;46.850;7.578;2023-03-15T02:51:04;95211.31;;;-0.23;55.65
77871;BME280;67067;46.850;7.578;2023-03-15T02:52:06;95219.50;;;-0.26;55.74
77871;BME280;67067;46.850;7.578;2023-03-15T02:53:10;95206.84;;;-0.29;55.89
77871;BME280;67067;46.850;7.578;2023-03-15T02:54:12;95207.06;;;-0.31;55.82
77871;BME280;67067;46.850;7.578;2023-03-15T02:55:14;95206.91;;;-0.44;55.97
77871;BME280;67067;46.850;7.578;2023-03-15T02:56:17;95219.66;;;-0.49;56.45
77871;BME280;67067;46.850;7.578;2023-03-15T02:57:22;95216.41;;;-0.52;56.36
77871;BME280;67067;46.850;7.578;2023-03-15T02:58:24;95225.97;;;-0.52;56.60
77871;BME280;67067;46.850;7.578;2023-03-15T02:59:27;95213.09;;;-0.60;56.88
77871;BME280;67067;46.850;7.578;2023-03-15T03:00:29;95212.72;;;-0.72;56.95
77871;BME280;67067;46.850;7.578;2023-03-15T03:01:31;95207.34;;;-0.71;56.83
77871;BME280;67067;46.850;7.578;2023-03-15T03:02:33;95213.81;;;-0.67;56.79
77871;BME280;67067;46.850;7.578;2023-03-15T03:03:35;95208.41;;;-0.65;56.60
77871;BME280;67067;46.850;7.578;2023-03-15T03:04:38;95206.63;;;-0.64;56.69
77871;BME280;67067;46.850;7.578;2023-03-15T03:05:40;95208.16;;;-0.70;56.80
77871;BME280;67067;46.850;7.578;2023-03-15T03:06:41;95208.16;;;-0.70;56.81
77871;BME280;67067;46.850;7.578;2023-03-15T03:07:47;95220.00;;;-0.68;56.73
77871;BME280;67067;46.850;7.578;2023-03-15T03:08:51;95214.59;;;-0.66;56.91
77871;BME280;67067;46.850;7.578;2023-03-15T03:09:53;95222.66;;;-0.61;56.88
77871;BME280;67067;46.850;7.578;2023-03-15T03:10:59;95224.09;;;-0.58;56.97
77871;BME280;67067;46.850;7.578;2023-03-15T03:12:02;95226.09;;;-0.60;56.96
77871;BME280;67067;46.850;7.578;2023-03-15T03:13:06;95222.03;;;-0.63;56.64
77871;BME280;67067;46.850;7.578;2023-03-15T03:14:12;95230.47;;;-0.61;56.88
77871;BME280;67067;46.850;7.578;2023-03-15T03:15:16;95232.69;;;-0.58;56.86
77871;BME280;67067;46.850;7.578;2023-03-15T03:16:18;95231.53;;;-0.55;56.96
77871;BME280;67067;46.850;7.578;2023-03-15T03:17:20;95233.16;;;-0.54;56.93
77871;BME280;67067;46.850;7.578;2023-03-15T03:18:23;95238.19;;;-0.53;56.97
77871;BME280;67067;46.850;7.578;2023-03-15T03:19:25;95238.97;;;-0.52;57.05
77871;BME280;67067;46.850;7.578;2023-03-15T03:20:27;95243.06;;;-0.49;57.03
77871;BME280;67067;46.850;7.578;2023-03-15T03:21:29;95239.59;;;-0.50;57.07
77871;BME280;67067;46.850;7.578;2023-03-15T03:22:31;95235.59;;;-0.53;56.95
77871;BME280;67067;46.850;7.578;2023-03-15T03:23:34;95236.22;;;-0.50;57.03
77871;BME280;67067;46.850;7.578;2023-03-15T03:24:39;95241.25;;;-0.49;57.13
77871;BME280;67067;46.850;7.578;2023-03-15T03:25:47;95242.06;;;-0.48;57.08
77871;BME280;67067;46.850;7.578;2023-03-15T03:26:52;95242.69;;;-0.46;57.21
77871;BME280;67067;46.850;7.578;2023-03-15T03:28:00;95241.88;;;-0.47;57.05
77871;BME280;67067;46.850;7.578;2023-03-15T03:29:07;95247.91;;;-0.46;57.05
77871;BME280;67067;46.850;7.578;2023-03-15T03:30:10;95241.13;;;-0.56;56.94
77871;BME280;67067;46.850;7.578;2023-03-15T03:31:23;95241.41;;;-0.50;56.83
77871;BME280;67067;46.850;7.578;2023-03-15T03:32:28;95246.00;;;-0.53;56.84
77871;BME280;67067;46.850;7.578;2023-03-15T03:33:30;95245.91;;;-0.59;56.94
77871;BME280;67067;46.850;7.578;2023-03-15T03:34:32;95253.97;;;-0.54;56.92
77871;BME280;67067;46.850;7.578;2023-03-15T03:35:34;95250.88;;;-0.49;56.89
77871;BME280;67067;46.850;7.578;2023-03-15T03:36:36;95252.28;;;-0.47;56.82
77871;BME280;67067;46.850;7.578;2023-03-15T03:37:38;95249.69;;;-0.47;56.82
77871;BME280;67067;46.850;7.578;2023-03-15T03:38:48;95249.06;;;-0.49;56.70
77871;BME280;67067;46.850;7.578;2023-03-15T03:39:54;95254.41;;;-0.50;56.84
77871;BME280;67067;46.850;7.578;2023-03-15T03:40:56;95248.66;;;-0.61;56.90
77871;BME280;67067;46.850;7.578;2023-03-15T03:42:02;95255.13;;;-0.57;56.76
77871;BME280;67067;46.850;7.578;2023-03-15T03:43:05;95251.88;;;-0.59;56.84
77871;BME280;67067;46.850;7.578;2023-03-15T03:44:06;95263.09;;;-0.58;56.88
77871;BME280;67067;46.850;7.578;2023-03-15T03:45:09;95261.94;;;-0.56;56.74
77871;BME280;67067;46.850;7.578;2023-03-15T03:46:15;95262.28;;;-0.59;56.87
77871;BME280;67067;46.850;7.578;2023-03-15T03:47:22;95260.69;;;-0.60;57.00
77871;BME280;67067;46.850;7.578;2023-03-15T03:48:23;95256.13;;;-0.73;57.18
77871;BME280;67067;46.850;7.578;2023-03-15T03:49:25;95258.16;;;-0.68;57.15
77871;BME280;67067;46.850;7.578;2023-03-15T03:50:27;95266.97;;;-0.69;57.33
77871;BME280;67067;46.850;7.578;2023-03-15T03:51:31;95267.78;;;-0.69;57.15
77871;BME280;67067;46.850;7.578;2023-03-15T03:52:36;95273.34;;;-0.72;57.19
77871;BME280;67067;46.850;7.578;2023-03-15T03:53:45;95265.69;;;-0.73;57.28
77871;BME280;67067;46.850;7.578;2023-03-15T03:54:47;95261.31;;;-0.73;57.17
77871;BME280;67067;46.850;7.578;2023-03-15T03:55:49;95271.34;;;-0.85;57.31
77871;BME280;67067;46.850;7.578;2023-03-15T03:56:54;95268.03;;;-0.78;57.26
77871;BME280;67067;46.850;7.578;2023-03-15T03:57:59;95269.84;;;-0.79;57.26
77871;BME280;67067;46.850;7.578;2023-03-15T03:59:35;95270.34;;;-0.84;57.13
77871;BME280;67067;46.850;7.578;2023-03-15T04:00:39;95270.34;;;-0.84;57.20
77871;BME280;67067;46.850;7.578;2023-03-15T04:01:43;95279.41;;;-0.79;57.13
77871;BME280;67067;46.850;7.578;2023-03-15T04:02:45;95281.38;;;-0.82;57.30
77871;BME280;67067;46.850;7.578;2023-03-15T04:03:49;95282.00;;;-0.79;57.29
77871;BME280;67067;46.850;7.578;2023-03-15T04:04:54;95280.41;;;-0.81;57.32
77871;BME280;67067;46.850;7.578;2023-03-15T04:05:59;95286.78;;;-0.83;57.40
77871;BME280;67067;46.850;7.578;2023-03-15T04:07:04;95289.53;;;-0.85;57.38
77871;BME280;67067;46.850;7.578;2023-03-15T04:08:12;95285.31;;;-0.86;57.32
77871;BME280;67067;46.850;7.578;2023-03-15T04:09:15;95295.09;;;-0.88;57.34
77871;BME280;67067;46.850;7.578;2023-03-15T04:10:20;95288.28;;;-0.89;57.26
77871;BME280;67067;46.850;7.578;2023-03-15T04:11:27;95292.22;;;-0.93;57.14
77871;BME280;67067;46.850;7.578;2023-03-15T04:12:33;95289.78;;;-0.94;57.46
77871;BME280;67067;46.850;7.578;2023-03-15T04:13:37;95287.19;;;-0.94;57.49
77871;BME280;67067;46.850;7.578;2023-03-15T04:14:38;95292.66;;;-1.04;57.47
77871;BME280;67067;46.850;7.578;2023-03-15T04:15:43;95295.88;;;-1.02;57.62
77871;BME280;67067;46.850;7.578;2023-03-15T04:16:45;95294.97;;;-1.09;57.52
77871;BME280;67067;46.850;7.578;2023-03-15T04:17:50;95302.41;;;-1.06;57.63
77871;BME280;67067;46.850;7.578;2023-03-15T04:19:05;95300.97;;;-1.09;57.35
77871;BME280;67067;46.850;7.578;2023-03-15T04:20:10;95301.16;;;-1.11;57.32
77871;BME280;67067;46.850;7.578;2023-03-15T04:21:16;95295.97;;;-1.11;57.43
77871;BME280;67067;46.850;7.578;2023-03-15T04:22:27;95298.91;;;-1.14;57.52
77871;BME280;67067;46.850;7.578;2023-03-15T04:23:38;95295.22;;;-1.19;57.73
77871;BME280;67067;46.850;7.578;2023-03-15T04:24:56;95295.56;;;-1.22;57.80
77871;BME280;67067;46.850;7.578;2023-03-15T04:26:12;95300.13;;;-1.25;58.01
77871;BME280;67067;46.850;7.578;2023-03-15T04:27:31;95299.50;;;-1.27;58.20
77871;BME280;67067;46.850;7.578;2023-03-15T04:28:55;95302.88;;;-1.26;58.01
77871;BME280;67067;46.850;7.578;2023-03-15T04:30:10;95310.50;;;-1.25;58.07
77871;BME280;67067;46.850;7.578;2023-03-15T04:31:32;95304.50;;;-1.25;58.01
77871;BME280;67067;46.850;7.578;2023-03-15T04:33:08;95310.69;;;-1.26;57.91
77871;BME280;67067;46.850;7.578;2023-03-15T04:34:29;95307.44;;;-1.28;57.94
77871;BME280;67067;46.850;7.578;2023-03-15T04:35:59;95307.16;;;-1.33;57.96
77871;BME280;67067;46.850;7.578;2023-03-15T04:37:14;95304.91;;;-1.36;58.03
77871;BME280;67067;46.850;7.578;2023-03-15T04:38:32;95311.91;;;-1.37;58.24
77871;BME280;67067;46.850;7.578;2023-03-15T04:39:49;95308.50;;;-1.37;58.14
77871;BME280;67067;46.850;7.578;2023-03-15T04:41:12;95304.28;;;-1.38;58.25
77871;BME280;67067;46.850;7.578;2023-03-15T04:42:31;95308.22;;;-1.43;58.30
77871;BME280;67067;46.850;7.578;2023-03-15T04:43:40;95308.22;;;-1.43;58.40
77871;BME280;67067;46.850;7.578;2023-03-15T04:44:53;95305.81;;;-1.44;58.32
77871;BME280;67067;46.850;7.578;2023-03-15T04:46:21;95310.53;;;-1.48;58.35
77871;BME280;67067;46.850;7.578;2023-03-15T04:47:48;95311.50;;;-1.49;58.19
77871;BME280;67067;46.850;7.578;2023-03-15T04:49:10;95316.88;;;-1.50;58.32
77871;BME280;67067;46.850;7.578;2023-03-15T04:50:37;95311.91;;;-1.60;58.28
77871;BME280;67067;46.850;7.578;2023-03-15T04:51:58;95310.63;;;-1.64;58.47
77871;BME280;67067;46.850;7.578;2023-03-15T04:53:00;95310.41;;;-1.78;58.73
77871;BME280;67067;46.850;7.578;2023-03-15T04:54:22;95310.06;;;-1.75;58.55
77871;BME280;67067;46.850;7.578;2023-03-15T04:55:44;95310.22;;;-1.76;58.53
77871;BME280;67067;46.850;7.578;2023-03-15T04:56:59;95311.38;;;-1.79;58.48
77871;BME280;67067;46.850;7.578;2023-03-15T04:58:21;95317.56;;;-1.80;58.45
77871;BME280;67067;46.850;7.578;2023-03-15T04:59:41;95313.50;;;-1.82;58.56
77871;BME280;67067;46.850;7.578;2023-03-15T05:01:01;95312.06;;;-1.85;58.71
77871;BME280;67067;46.850;7.578;2023-03-15T05:02:19;95305.91;;;-1.84;58.61
77871;BME280;67067;46.850;7.578;2023-03-15T05:03:42;95308.50;;;-1.84;58.54
77871;BME280;67067;46.850;7.578;2023-03-15T05:05:02;95313.69;;;-1.84;58.64
77871;BME280;67067;46.850;7.578;2023-03-15T05:06:22;95316.09;;;-1.82;58.56
77871;BME280;67067;46.850;7.578;2023-03-15T05:07:43;95319.66;;;-1.84;58.57
77871;BME280;67067;46.850;7.578;2023-03-15T05:09:10;95320.16;;;-1.88;58.63
77871;BME280;67067;46.850;7.578;2023-03-15T05:10:29;95316.94;;;-1.90;58.65
77871;BME280;67067;46.850;7.578;2023-03-15T05:11:50;95320.50;;;-1.91;58.76
77871;BME280;67067;46.850;7.578;2023-03-15T05:13:26;95315.66;;;-1.94;58.74
77871;BME280;67067;46.850;7.578;2023-03-15T05:14:44;95322.66;;;-1.95;58.85
77871;BME280;67067;46.850;7.578;2023-03-15T05:16:27;95321.88;;;-2.04;59.11
77871;BME280;67067;46.850;7.578;2023-03-15T05:17:35;95323.81;;;-2.06;59.17
77871;BME280;67067;46.850;7.578;2023-03-15T05:18:48;95330.28;;;-2.02;58.96
77871;BME280;67067;46.850;7.578;2023-03-15T05:20:12;95331.91;;;-2.01;58.99
77871;BME280;67067;46.850;7.578;2023-03-15T05:21:27;95325.59;;;-1.98;59.08
77871;BME280;67067;46.850;7.578;2023-03-15T05:22:45;95328.81;;;-1.96;58.79
77871;BME280;67067;46.850;7.578;2023-03-15T05:24:01;95334.66;;;-1.94;58.70
77871;BME280;67067;46.850;7.578;2023-03-15T05:25:19;95333.66;;;-1.93;58.65
77871;BME280;67067;46.850;7.578;2023-03-15T05:26:56;95334.47;;;-1.92;58.84
77871;BME280;67067;46.850;7.578;2023-03-15T05:28:22;95335.63;;;-1.95;58.66
77871;BME280;67067;46.850;7.578;2023-03-15T05:29:29;95339.66;;;-1.92;58.82
77871;BME280;67067;46.850;7.578;2023-03-15T05:42:52;95359.50;;;-2.08;58.56
77871;BME280;67067;46.850;7.578;2023-03-15T05:43:54;95364.38;;;-2.13;58.74
77871;BME280;67067;46.850;7.578;2023-03-15T05:45:14;95364.06;;;-2.10;58.63
77871;BME280;67067;46.850;7.578;2023-03-15T05:46:30;95366.31;;;-2.07;58.53
77871;BME280;67067;46.850;7.578;2023-03-15T05:48:02;95364.06;;;-2.10;58.46
77871;BME280;67067;46.850;7.578;2023-03-15T05:49:26;95362.91;;;-2.07;58.51
77871;BME280;67067;46.850;7.578;2023-03-15T05:50:57;95358.88;;;-2.10;58.63
77871;BME280;67067;46.850;7.578;2023-03-15T05:52:19;95355.28;;;-2.09;58.55
77871;BME280;67067;46.850;7.578;2023-03-15T05:53:29;95356.13;;;-2.08;58.24
77871;BME280;67067;46.850;7.578;2023-03-15T05:54:57;95348.81;;;-2.13;58.42
77871;BME280;67067;46.850;7.578;2023-03-15T05:56:17;95348.38;;;-2.17;58.41
77871;BME280;67067;46.850;7.578;2023-03-15T05:57:25;95353.56;;;-2.17;58.67
77871;BME280;67067;46.850;7.578;2023-03-15T05:58:56;95356.94;;;-2.16;58.50
77871;BME280;67067;46.850;7.578;2023-03-15T06:00:17;95358.75;;;-2.17;58.68
77871;BME280;67067;46.850;7.578;2023-03-15T06:01:22;95361.16;;;-2.15;58.65
77871;BME280;67067;46.850;7.578;2023-03-15T06:02:45;95369.13;;;-2.17;58.57
77871;BME280;67067;46.850;7.578;2023-03-15T06:04:05;95366.34;;;-2.15;58.65
77871;BME280;67067;46.850;7.578;2023-03-15T06:05:09;95364.38;;;-2.13;58.66
77871;BME280;67067;46.850;7.578;2023-03-15T06:06:11;95360.47;;;-2.09;58.66
77871;BME280;67067;46.850;7.578;2023-03-15T06:07:15;95359.69;;;-2.09;58.68
77871;BME280;67067;46.850;7.578;2023-03-15T06:08:16;95358.88;;;-2.10;58.67
77871;BME280;67067;46.850;7.578;2023-03-15T06:09:21;95362.91;;;-2.07;58.41
77871;BME280;67067;46.850;7.578;2023-03-15T06:10:22;95360.69;;;-2.19;58.68
77871;BME280;67067;46.850;7.578;2023-03-15T06:11:25;95362.44;;;-2.11;58.51
77871;BME280;67067;46.850;7.578;2023-03-15T06:12:27;95360.38;;;-2.16;58.63
77871;BME280;67067;46.850;7.578;2023-03-15T06:13:28;95366.66;;;-2.10;58.57
77871;BME280;67067;46.850;7.578;2023-03-15T06:14:31;95369.09;;;-2.08;58.33
77871;BME280;67067;46.850;7.578;2023-03-15T06:15:39;95372.47;;;-2.08;58.21
77871;BME280;67067;46.850;7.578;2023-03-15T06:16:47;95369.88;;;-2.08;58.16
77871;BME280;67067;46.850;7.578;2023-03-15T06:17:51;95373.13;;;-2.06;58.07
77871;BME280;67067;46.850;7.578;2023-03-15T06:18:53;95372.78;;;-2.03;58.12
77871;BME280;67067;46.850;7.578;2023-03-15T06:19:57;95377.00;;;-2.02;58.19
77871;BME280;67067;46.850;7.578;2023-03-15T06:21:01;95383.47;;;-1.98;58.10
77871;BME280;67067;46.850;7.578;2023-03-15T06:22:03;95380.22;;;-2.00;58.16
77871;BME280;67067;46.850;7.578;2023-03-15T06:23:12;95383.47;;;-1.98;58.19
77871;BME280;67067;46.850;7.578;2023-03-15T06:24:19;95385.06;;;-1.96;58.14
77871;BME280;67067;46.850;7.578;2023-03-15T06:25:21;95383.94;;;-1.94;58.23